Aérodrome :
LOGIN :

S'inscrire | Disclaimer

   EN    FR    IT 

 










Légende :    VFR   VFR Marginal   IFR   IFR Intensif   IFR Très Intensif
Visi : 
Plafond : 
>= 8 km
>= 3000ft
5 à 8 km
1000 à 3000 ft
1500m à 5 km
500 à 1000 ft
800 à 1500m
200 à 500 ft
< 800m
< 200 ft
Symboles :   Orages  Brouillard  Fortes neiges  Fortes précipitations  Vent > 20 kt
SIGMETs :   Divers  Orages  Givrage  Turbulence  Onde Orograph.  Cendres Volcan.






- Altitude de l'aérodrome : 915 ft
- Code IATA : LUG


LSZA - Lugano

DERNIER METAR :
  • 140550Z AUTO VRB01KT CAVOK 00/M01 Q1009

METARs EXPIRÉS :
  • 140520Z AUTO 02004KT CAVOK M01/M02 Q1009
  • 140450Z AUTO 02003KT CAVOK M00/M01 Q1009
  • 140420Z AUTO VRB01KT 9999 NSC M01/M01 Q1008
  • 140350Z AUTO VRB01KT CAVOK M00/M01 Q1008
  • 140320Z AUTO VRB01KT CAVOK M00/M02 Q1008

TAF TAF LSZA
Valide du 14 à 06h jusqu'au 14 à 15h UTC


140525Z 1406/1415 VRB03KT CAVOK
BECMG 1409/1411 9999 BKN070
ATIS : +41 22 417 40 88



MET'MAP, la Météo Aéronautique d'un coup d'oeil ! - Copyright ORBIFLY Décembre 2007 - Disclaimer

ORBIFLY MET'MAP TEAM :

Programmation & Développement : Alexandra Zaïnal
Conception & Développement : Baudouin d'Aumeries
Co-Programmation & Développement : Marc-Olivier Méhu
Soutien technique & logistique : Manuel Goepfert

Contact : metmap@orbifly.com




SOURCES & CREDITS :

   NOAA